Time;durP1;ratioP1;P1;durP2;ratioP2;P2;SDS_P1;SDS_P2;PMS_P1;PMS_P2;Temp;Humidity;BMP_temperature;BMP_pressure;BME280_temperature;BME280_humidity;BME280_pressure;Samples;Min_cycle;Max_cycle;Signal;HPM_P1;HPM_P2
2021/06/06 00:00:54;;;;;;;6.80;5.07;;;;;;;;;;5057696;28;20751;-80
2021/06/06 00:03:24;;;;;;;5.70;4.82;;;;;;;;;;5043014;28;20410;-82
2021/06/06 00:05:55;;;;;;;5.47;4.57;;;;;;;;;;5045216;28;20461;-82
2021/06/06 00:08:22;;;;;;;6.30;4.40;;;;;;;;;;5045437;28;20410;-82
2021/06/06 00:10:50;;;;;;;5.85;4.68;;;;;;;;;;5046341;28;20893;-82
2021/06/06 00:13:19;;;;;;;5.38;4.80;;;;;;;;;;5044202;28;20475;-82
2021/06/06 00:15:46;;;;;;;5.00;4.50;;;;;;;;;;5043477;28;21133;-82
2021/06/06 00:18:13;;;;;;;5.47;4.80;;;;;;;;;;5044515;28;20919;-81
2021/06/06 00:20:40;;;;;;;5.95;5.00;;;;;;;;;;5041647;28;20456;-82
2021/06/06 00:23:10;;;;;;;6.53;4.78;;;;;;;;;;5045637;28;21253;-80
2021/06/06 00:25:38;;;;;;;5.97;4.88;;;;;;;;;;5039181;28;20893;-82
2021/06/06 00:28:05;;;;;;;6.45;4.72;;;;;;;;;;5044944;28;20455;-81
2021/06/06 00:30:31;;;;;;;5.05;4.55;;;;;;;;;;5042889;28;20425;-82
2021/06/06 00:32:58;;;;;;;6.05;4.43;;;;;;;;;;5051656;28;20950;-81
2021/06/06 00:35:25;;;;;;;5.25;4.60;;;;;;;;;;5063852;28;20574;-82
2021/06/06 00:37:52;;;;;;;5.60;4.90;;;;;;;;;;5064104;28;20433;-81
2021/06/06 00:40:24;;;;;;;6.25;4.90;;;;;;;;;;5063272;28;20477;-82
2021/06/06 00:42:52;;;;;;;6.75;4.80;;;;;;;;;;5064040;28;20404;-82
2021/06/06 00:45:21;;;;;;;7.20;4.50;;;;;;;;;;5064527;28;20398;-82
2021/06/06 00:47:47;;;;;;;6.20;4.80;;;;;;;;;;5064245;28;20455;-82
2021/06/06 00:50:20;;;;;;;6.90;4.82;;;;;;;;;;5064965;28;20385;-82
2021/06/06 00:52:50;;;;;;;5.93;2.70;;;;;;;;;;5064615;28;20398;-82
2021/06/06 00:55:19;;;;;;;6.78;3.33;;;;;;;;;;5062835;28;20398;-82
2021/06/06 00:57:46;;;;;;;8.97;4.73;;;;;;;;;;5055040;28;20604;-83
2021/06/06 01:00:20;;;;;;;7.13;4.35;;;;;;;;;;5058680;28;20407;-83
2021/06/06 01:02:51;;;;;;;8.57;5.38;;;;;;;;;;5058309;28;20766;-83
2021/06/06 01:05:28;;;;;;;8.67;6.03;;;;;;;;;;5059869;28;20760;-83
2021/06/06 01:07:55;;;;;;;10.38;7.00;;;;;;;;;;5044109;28;20408;-83
2021/06/06 01:10:23;;;;;;;14.20;7.93;;;;;;;;;;5030197;28;20852;-85
2021/06/06 01:12:54;;;;;;;11.68;7.88;;;;;;;;;;5025377;28;20401;-84
2021/06/06 01:15:26;;;;;;;9.80;7.05;;;;;;;;;;5040185;28;20403;-84
2021/06/06 01:18:02;;;;;;;8.70;6.03;;;;;;;;;;5044644;28;20526;-84
2021/06/06 01:20:42;;;;;;;10.23;6.07;;;;;;;;;;5021731;28;20419;-82
2021/06/06 01:23:22;;;;;;;12.10;6.25;;;;;;;;;;5022427;28;20405;-83
2021/06/06 01:25:54;;;;;;;6.28;5.03;;;;;;;;;;5026666;28;20406;-82
2021/06/06 01:28:26;;;;;;;9.10;6.00;;;;;;;;;;5044412;28;20426;-83
2021/06/06 01:30:57;;;;;;;7.63;6.20;;;;;;;;;;5040477;28;20403;-82
2021/06/06 01:33:28;;;;;;;9.00;7.25;;;;;;;;;;5033477;28;20409;-82
2021/06/06 01:35:58;;;;;;;11.60;7.10;;;;;;;;;;5024965;28;20405;-81
2021/06/06 01:38:27;;;;;;;8.93;6.85;;;;;;;;;;5024726;28;20407;-82
2021/06/06 01:40:58;;;;;;;7.32;6.63;;;;;;;;;;5022973;28;20413;-83
2021/06/06 01:43:34;;;;;;;7.38;6.20;;;;;;;;;;5026990;28;20413;-82
2021/06/06 01:46:04;;;;;;;7.72;6.15;;;;;;;;;;5025482;28;20418;-82
2021/06/06 01:48:33;;;;;;;9.07;6.15;;;;;;;;;;5044772;28;20404;-82
2021/06/06 01:51:04;;;;;;;7.90;6.10;;;;;;;;;;5040956;28;20871;-82
2021/06/06 01:53:31;;;;;;;7.47;5.65;;;;;;;;;;5022745;28;20401;-82
2021/06/06 01:56:01;;;;;;;7.20;5.90;;;;;;;;;;5040425;28;20491;-82
2021/06/06 01:58:29;;;;;;;7.80;6.07;;;;;;;;;;5040053;28;20406;-81
2021/06/06 02:00:58;;;;;;;7.80;6.03;;;;;;;;;;5024804;28;20505;-82
2021/06/06 02:03:25;;;;;;;10.57;7.07;;;;;;;;;;5033846;28;20401;-82
2021/06/06 02:05:54;;;;;;;8.18;6.80;;;;;;;;;;5043681;28;20997;-83
2021/06/06 02:08:21;;;;;;;13.20;7.32;;;;;;;;;;5065623;28;20481;-83
2021/06/06 02:10:53;;;;;;;9.48;7.50;;;;;;;;;;5064897;28;20397;-84
2021/06/06 02:13:25;;;;;;;8.23;6.90;;;;;;;;;;5065196;28;20398;-84
2021/06/06 02:15:54;;;;;;;9.65;8.02;;;;;;;;;;5061866;28;20765;-84
2021/06/06 02:18:21;;;;;;;9.30;8.00;;;;;;;;;;5064805;28;20873;-83
2021/06/06 02:20:49;;;;;;;10.13;7.97;;;;;;;;;;5065391;28;20842;-83
2021/06/06 02:23:20;;;;;;;11.27;8.00;;;;;;;;;;5065263;28;20408;-82
2021/06/06 02:25:48;;;;;;;10.88;7.65;;;;;;;;;;5065113;28;20394;-81
2021/06/06 02:28:25;;;;;;;9.70;8.02;;;;;;;;;;5064809;28;20402;-81
2021/06/06 02:30:57;;;;;;;8.82;7.90;;;;;;;;;;5065138;28;20476;-84
2021/06/06 02:33:31;;;;;;;9.55;7.70;;;;;;;;;;5065016;28;20428;-83
2021/06/06 02:36:01;;;;;;;10.13;8.25;;;;;;;;;;5056531;28;20438;-83
2021/06/06 02:38:34;;;;;;;9.90;8.73;;;;;;;;;;5058996;28;20398;-83
2021/06/06 02:41:04;;;;;;;11.63;8.38;;;;;;;;;;5055291;28;20405;-83
2021/06/06 02:43:37;;;;;;;10.13;8.65;;;;;;;;;;5063168;28;20412;-83
2021/06/06 02:46:05;;;;;;;11.35;8.75;;;;;;;;;;5056961;28;20544;-82
2021/06/06 02:48:38;;;;;;;10.25;8.40;;;;;;;;;;5083721;28;20452;-83
2021/06/06 02:51:08;;;;;;;11.98;8.40;;;;;;;;;;5071430;28;20425;-82
2021/06/06 02:53:38;;;;;;;10.75;7.72;;;;;;;;;;5061915;28;20485;-82
2021/06/06 02:56:11;;;;;;;10.20;7.55;;;;;;;;;;5061118;28;20394;-82
2021/06/06 02:58:44;;;;;;;9.55;6.90;;;;;;;;;;5061570;28;20398;-83
2021/06/06 03:01:16;;;;;;;7.47;6.68;;;;;;;;;;5061492;28;20405;-82
2021/06/06 03:03:45;;;;;;;6.15;5.55;;;;;;;;;;5054476;28;20404;-82
2021/06/06 03:06:16;;;;;;;8.07;5.13;;;;;;;;;;5044228;28;20426;-82
2021/06/06 03:08:43;;;;;;;5.73;4.67;;;;;;;;;;5031203;28;20408;-83
2021/06/06 03:11:11;;;;;;;7.10;5.07;;;;;;;;;;5031859;28;20391;-83
2021/06/06 03:13:42;;;;;;;6.57;4.72;;;;;;;;;;5029814;28;20877;-83
2021/06/06 03:16:08;;;;;;;5.80;4.50;;;;;;;;;;5030348;28;20800;-83
2021/06/06 03:18:38;;;;;;;4.68;4.13;;;;;;;;;;5032465;28;20407;-82
2021/06/06 03:21:11;;;;;;;4.90;4.40;;;;;;;;;;5029296;28;20412;-82
2021/06/06 03:23:39;;;;;;;4.60;4.10;;;;;;;;;;5032985;28;20520;-82
2021/06/06 03:26:08;;;;;;;5.43;4.32;;;;;;;;;;5031909;28;20435;-82
2021/06/06 03:28:38;;;;;;;5.30;4.50;;;;;;;;;;5029401;28;20405;-83
2021/06/06 03:31:09;;;;;;;6.50;4.50;;;;;;;;;;5032461;28;21253;-83
2021/06/06 03:33:47;;;;;;;4.78;4.38;;;;;;;;;;5029875;28;20419;-83
2021/06/06 03:36:20;;;;;;;3.83;3.53;;;;;;;;;;5031198;28;20408;-82
2021/06/06 03:38:47;;;;;;;4.40;4.00;;;;;;;;;;5029343;28;20498;-82
2021/06/06 03:41:13;;;;;;;5.00;3.70;;;;;;;;;;5030825;28;20959;-81
2021/06/06 03:43:39;;;;;;;5.13;3.70;;;;;;;;;;5032118;28;20411;-83
2021/06/06 03:46:07;;;;;;;5.38;3.75;;;;;;;;;;5029277;28;20412;-82
2021/06/06 03:48:34;;;;;;;4.95;3.50;;;;;;;;;;5033013;28;20436;-83
2021/06/06 03:51:01;;;;;;;4.68;3.60;;;;;;;;;;5031352;28;20429;-81
2021/06/06 03:53:27;;;;;;;3.78;3.45;;;;;;;;;;5027530;28;20461;-83
2021/06/06 03:55:54;;;;;;;4.65;3.30;;;;;;;;;;5032065;28;20412;-82
2021/06/06 03:58:22;;;;;;;4.45;3.40;;;;;;;;;;5034328;28;20429;-82
2021/06/06 04:00:50;;;;;;;4.80;4.00;;;;;;;;;;5033280;28;20403;-82
2021/06/06 04:03:18;;;;;;;6.28;3.50;;;;;;;;;;5030776;28;20757;-82
2021/06/06 04:05:46;;;;;;;3.80;3.50;;;;;;;;;;5027175;28;20506;-82
2021/06/06 04:08:12;;;;;;;5.53;3.90;;;;;;;;;;5053872;28;20408;-82
2021/06/06 04:10:40;;;;;;;4.70;4.28;;;;;;;;;;5050397;28;20433;-83
2021/06/06 04:13:07;;;;;;;4.38;4.00;;;;;;;;;;5049479;28;20474;-83
2021/06/06 04:15:34;;;;;;;5.07;4.32;;;;;;;;;;5049757;28;20767;-82
2021/06/06 04:18:09;;;;;;;4.95;4.43;;;;;;;;;;5048768;28;20728;-83
2021/06/06 04:20:37;;;;;;;5.18;4.68;;;;;;;;;;5046196;28;20795;-83
2021/06/06 04:23:04;;;;;;;5.53;4.90;;;;;;;;;;5048327;28;20488;-83
2021/06/06 04:25:30;;;;;;;5.80;4.53;;;;;;;;;;5049362;28;20458;-83
2021/06/06 04:27:57;;;;;;;6.32;5.03;;;;;;;;;;5049549;28;20398;-82
2021/06/06 04:30:24;;;;;;;6.07;5.00;;;;;;;;;;5050490;28;21162;-82
2021/06/06 04:32:51;;;;;;;4.78;4.35;;;;;;;;;;5050000;28;20485;-83
2021/06/06 04:35:18;;;;;;;5.55;4.10;;;;;;;;;;5051303;28;20402;-83
2021/06/06 04:37:46;;;;;;;6.23;4.23;;;;;;;;;;5048223;28;21115;-83
2021/06/06 04:40:15;;;;;;;4.78;4.28;;;;;;;;;;5049940;28;20479;-83
2021/06/06 04:42:41;;;;;;;5.18;4.50;;;;;;;;;;5048400;28;20486;-82
2021/06/06 04:45:15;;;;;;;5.85;4.38;;;;;;;;;;5050883;28;20408;-82
2021/06/06 04:47:42;;;;;;;5.30;4.57;;;;;;;;;;5049264;28;20426;-84
2021/06/06 04:50:12;;;;;;;5.40;4.70;;;;;;;;;;5050594;28;20407;-82
2021/06/06 04:52:38;;;;;;;5.47;4.40;;;;;;;;;;5049447;28;20408;-83
2021/06/06 04:55:09;;;;;;;5.20;4.70;;;;;;;;;;5049236;28;20414;-83
2021/06/06 04:57:36;;;;;;;6.78;4.80;;;;;;;;;;5049744;28;20446;-83
2021/06/06 05:00:05;;;;;;;6.07;4.68;;;;;;;;;;5049758;28;20544;-83
2021/06/06 05:02:31;;;;;;;4.93;4.40;;;;;;;;;;5049383;28;20469;-82
2021/06/06 05:04:58;;;;;;;5.53;4.40;;;;;;;;;;5045117;28;20459;-83
2021/06/06 05:07:24;;;;;;;5.28;4.78;;;;;;;;;;5050695;28;20919;-83
2021/06/06 05:09:51;;;;;;;5.57;4.80;;;;;;;;;;5048939;28;20461;-83
2021/06/06 05:12:18;;;;;;;6.90;5.00;;;;;;;;;;5050829;28;20427;-83
2021/06/06 05:14:45;;;;;;;7.50;5.13;;;;;;;;;;5050492;28;20418;-83
2021/06/06 05:17:11;;;;;;;6.70;5.15;;;;;;;;;;5047928;28;20506;-83
2021/06/06 05:19:38;;;;;;;5.60;5.10;;;;;;;;;;5050388;28;20406;-83
2021/06/06 05:22:05;;;;;;;6.78;5.32;;;;;;;;;;5049929;28;20470;-83
2021/06/06 05:24:32;;;;;;;8.63;5.32;;;;;;;;;;5050576;28;20406;-83
2021/06/06 05:26:58;;;;;;;7.53;5.25;;;;;;;;;;5049937;28;20402;-83
2021/06/06 05:29:26;;;;;;;7.18;5.40;;;;;;;;;;5051040;28;20398;-83
2021/06/06 05:31:53;;;;;;;6.75;5.30;;;;;;;;;;5050970;28;20405;-83
2021/06/06 05:34:20;;;;;;;9.70;6.13;;;;;;;;;;5052814;28;21192;-83
2021/06/06 05:36:46;;;;;;;6.95;5.30;;;;;;;;;;5049606;28;20411;-83
2021/06/06 05:39:14;;;;;;;6.55;5.47;;;;;;;;;;5049994;28;20407;-84
2021/06/06 05:41:40;;;;;;;6.50;5.47;;;;;;;;;;5049322;28;20482;-83
2021/06/06 05:44:08;;;;;;;6.70;5.77;;;;;;;;;;5049342;28;20411;-83
2021/06/06 05:46:36;;;;;;;7.55;6.15;;;;;;;;;;5049600;28;20406;-83
2021/06/06 05:49:03;;;;;;;9.18;6.93;;;;;;;;;;5048915;28;20410;-83
2021/06/06 05:51:30;;;;;;;8.38;6.50;;;;;;;;;;5049989;28;20479;-83
2021/06/06 05:53:57;;;;;;;7.43;6.47;;;;;;;;;;5049937;28;20404;-83
2021/06/06 05:56:24;;;;;;;8.95;6.95;;;;;;;;;;5049722;28;20410;-83
2021/06/06 05:58:51;;;;;;;8.25;6.60;;;;;;;;;;5049977;28;20890;-83
2021/06/06 06:01:18;;;;;;;8.07;6.60;;;;;;;;;;5051559;28;20404;-81
2021/06/06 06:03:46;;;;;;;7.30;6.60;;;;;;;;;;5049930;28;20418;-83
2021/06/06 06:06:13;;;;;;;7.35;6.40;;;;;;;;;;5050337;28;20413;-84
2021/06/06 06:08:42;;;;;;;8.00;5.97;;;;;;;;;;5050206;28;20514;-84
2021/06/06 06:11:10;;;;;;;7.57;5.70;;;;;;;;;;5050075;28;20495;-85
2021/06/06 06:13:37;;;;;;;7.20;5.43;;;;;;;;;;5050039;28;20407;-81
2021/06/06 06:16:07;;;;;;;7.00;5.40;;;;;;;;;;5049751;28;20394;-82
2021/06/06 06:18:34;;;;;;;7.07;5.65;;;;;;;;;;5049689;28;20482;-81
2021/06/06 06:21:03;;;;;;;6.65;5.82;;;;;;;;;;5050461;28;20404;-82
2021/06/06 06:23:30;;;;;;;7.60;6.07;;;;;;;;;;5047379;28;20913;-82
2021/06/06 06:25:56;;;;;;;6.43;5.78;;;;;;;;;;5050793;28;20399;-81
2021/06/06 06:28:23;;;;;;;10.38;6.03;;;;;;;;;;5051136;28;20404;-82
2021/06/06 06:30:50;;;;;;;9.38;6.50;;;;;;;;;;5050358;28;20406;-82
2021/06/06 06:33:17;;;;;;;8.23;6.15;;;;;;;;;;5051255;28;20402;-81
2021/06/06 06:35:43;;;;;;;7.18;6.18;;;;;;;;;;5048928;28;20398;-81
2021/06/06 06:38:12;;;;;;;7.17;5.53;;;;;;;;;;5050969;28;20427;-81
2021/06/06 06:40:39;;;;;;;5.93;5.10;;;;;;;;;;5050660;28;20487;-83
2021/06/06 06:43:06;;;;;;;6.40;5.20;;;;;;;;;;5050536;28;20766;-82
2021/06/06 06:45:35;;;;;;;7.55;5.30;;;;;;;;;;5050893;28;20492;-82
2021/06/06 06:48:04;;;;;;;6.10;5.50;;;;;;;;;;5051716;28;20508;-82
2021/06/06 06:50:30;;;;;;;8.27;5.20;;;;;;;;;;5042924;28;20828;-82
2021/06/06 06:52:57;;;;;;;6.78;4.95;;;;;;;;;;5051703;28;20893;-83
2021/06/06 06:55:25;;;;;;;7.43;5.07;;;;;;;;;;5066301;28;20402;-82
2021/06/06 06:57:53;;;;;;;7.97;5.00;;;;;;;;;;5064517;28;20483;-84
2021/06/06 07:00:23;;;;;;;6.22;4.95;;;;;;;;;;5054403;28;20399;-84
2021/06/06 07:02:49;;;;;;;7.28;5.55;;;;;;;;;;5048814;28;20404;-84
2021/06/06 07:05:16;;;;;;;7.32;5.57;;;;;;;;;;5049721;28;20418;-83
2021/06/06 07:07:43;;;;;;;6.50;5.53;;;;;;;;;;5048976;28;20404;-84
2021/06/06 07:10:12;;;;;;;7.10;5.32;;;;;;;;;;5050167;28;20957;-83
2021/06/06 07:12:40;;;;;;;7.47;5.90;;;;;;;;;;5032950;28;20779;-83
2021/06/06 07:15:09;;;;;;;8.07;5.68;;;;;;;;;;5034053;28;20844;-80
2021/06/06 07:17:36;;;;;;;7.40;5.78;;;;;;;;;;5037089;28;20424;-81
2021/06/06 07:20:06;;;;;;;6.35;5.47;;;;;;;;;;5031445;28;20409;-82
2021/06/06 07:22:33;;;;;;;6.60;5.47;;;;;;;;;;5031353;28;20408;-82
2021/06/06 07:24:59;;;;;;;7.72;5.30;;;;;;;;;;5041086;28;20410;-83
2021/06/06 07:27:26;;;;;;;7.45;5.30;;;;;;;;;;5052842;28;20409;-83
2021/06/06 07:29:54;;;;;;;8.85;5.57;;;;;;;;;;5051845;28;20402;-84
2021/06/06 07:32:20;;;;;;;8.27;6.25;;;;;;;;;;5052701;28;20411;-83
2021/06/06 07:34:47;;;;;;;8.07;5.90;;;;;;;;;;5050800;28;20434;-83
2021/06/06 07:37:17;;;;;;;8.68;5.88;;;;;;;;;;5048139;28;20419;-84
2021/06/06 07:39:44;;;;;;;9.77;6.15;;;;;;;;;;5051972;28;20452;-83
2021/06/06 07:42:12;;;;;;;8.70;5.70;;;;;;;;;;5053865;28;20464;-83
2021/06/06 07:44:38;;;;;;;6.45;5.20;;;;;;;;;;5045101;28;20417;-83
2021/06/06 07:47:08;;;;;;;7.35;4.70;;;;;;;;;;5048043;28;20420;-81
2021/06/06 07:49:34;;;;;;;5.22;4.70;;;;;;;;;;5052988;28;20402;-83
2021/06/06 07:52:01;;;;;;;7.67;5.50;;;;;;;;;;5054225;28;20727;-83
2021/06/06 07:54:27;;;;;;;7.10;5.82;;;;;;;;;;5054377;28;20399;-83
2021/06/06 07:56:55;;;;;;;7.35;5.53;;;;;;;;;;5054194;28;20459;-83
2021/06/06 07:59:21;;;;;;;5.93;5.25;;;;;;;;;;5053963;28;20417;-81
2021/06/06 08:01:48;;;;;;;6.80;4.68;;;;;;;;;;5038549;28;20409;-84
2021/06/06 08:04:15;;;;;;;5.38;4.30;;;;;;;;;;5047278;28;20453;-84
2021/06/06 08:06:43;;;;;;;6.40;4.43;;;;;;;;;;5040876;28;20420;-83
2021/06/06 08:09:09;;;;;;;6.70;4.40;;;;;;;;;;5043634;28;20440;-84
2021/06/06 08:11:37;;;;;;;4.82;3.88;;;;;;;;;;5040655;28;20471;-82
2021/06/06 08:14:04;;;;;;;5.68;4.18;;;;;;;;;;5042673;28;20408;-83
2021/06/06 08:16:31;;;;;;;5.82;4.40;;;;;;;;;;5038023;28;20415;-82
2021/06/06 08:18:58;;;;;;;4.43;3.83;;;;;;;;;;5036832;28;20463;-81
2021/06/06 08:21:29;;;;;;;5.82;4.85;;;;;;;;;;5030216;28;21773;-81
2021/06/06 08:23:55;;;;;;;6.07;4.82;;;;;;;;;;5030836;28;20819;-82
2021/06/06 08:26:24;;;;;;;6.47;4.78;;;;;;;;;;5032156;28;20443;-83
2021/06/06 08:28:52;;;;;;;5.32;4.72;;;;;;;;;;5032095;28;20414;-83
2021/06/06 08:31:21;;;;;;;6.55;4.07;;;;;;;;;;5028405;28;21412;-83
2021/06/06 08:33:49;;;;;;;5.10;3.60;;;;;;;;;;5028264;28;20463;-83
2021/06/06 08:36:25;;;;;;;8.48;3.95;;;;;;;;;;5031593;28;20432;-87
2021/06/06 08:38:54;;;;;;;5.25;4.05;;;;;;;;;;5028653;28;20518;-82
2021/06/06 08:41:22;;;;;;;5.15;3.97;;;;;;;;;;5029345;28;20873;-83
2021/06/06 08:43:52;;;;;;;4.07;3.75;;;;;;;;;;5041601;28;20529;-84
2021/06/06 08:46:21;;;;;;;4.60;3.80;;;;;;;;;;5035074;28;20403;-83
2021/06/06 08:48:47;;;;;;;4.72;4.00;;;;;;;;;;5032777;28;20406;-82
2021/06/06 08:51:24;;;;;;;5.55;3.83;;;;;;;;;;5038802;28;20538;-83
2021/06/06 08:54:02;;;;;;;5.25;4.10;;;;;;;;;;5040319;28;20402;-84
2021/06/06 08:56:33;;;;;;;6.57;4.25;;;;;;;;;;5036158;28;20406;-83
2021/06/06 08:59:05;;;;;;;5.97;4.00;;;;;;;;;;5032881;28;20416;-83
2021/06/06 09:01:41;;;;;;;4.50;4.10;;;;;;;;;;5033281;28;20429;-83
2021/06/06 09:04:12;;;;;;;5.03;4.18;;;;;;;;;;5042258;28;20499;-83
2021/06/06 09:06:44;;;;;;;4.93;4.10;;;;;;;;;;5042998;28;20411;-83
2021/06/06 09:09:13;;;;;;;6.93;4.05;;;;;;;;;;5045960;28;20411;-83
2021/06/06 09:11:39;;;;;;;6.65;4.80;;;;;;;;;;5042955;28;20460;-83
2021/06/06 09:14:06;;;;;;;6.82;4.35;;;;;;;;;;5045176;28;20423;-82
2021/06/06 09:16:35;;;;;;;5.95;4.47;;;;;;;;;;5048525;28;20920;-82
2021/06/06 09:19:07;;;;;;;6.72;4.40;;;;;;;;;;5046521;28;20414;-84
2021/06/06 09:21:33;;;;;;;4.70;3.50;;;;;;;;;;5049964;28;20403;-84
2021/06/06 09:24:11;;;;;;;4.57;3.60;;;;;;;;;;5047989;28;20405;-84
2021/06/06 09:26:39;;;;;;;4.20;3.33;;;;;;;;;;5027191;28;20481;-84
2021/06/06 09:29:11;;;;;;;4.10;3.20;;;;;;;;;;5045612;28;20410;-85
2021/06/06 09:31:39;;;;;;;5.03;3.80;;;;;;;;;;5045487;28;20892;-85
2021/06/06 09:34:08;;;;;;;4.65;4.20;;;;;;;;;;5049694;28;20491;-85
2021/06/06 09:36:38;;;;;;;4.13;3.72;;;;;;;;;;5042871;28;20410;-84
2021/06/06 09:39:20;;;;;;;4.68;4.22;;;;;;;;;;5036334;28;20472;-84
2021/06/06 09:41:50;;;;;;;4.47;3.30;;;;;;;;;;5041586;28;20813;-84
2021/06/06 09:44:25;;;;;;;3.63;3.00;;;;;;;;;;5032656;28;20406;-84
2021/06/06 09:46:54;;;;;;;3.33;2.70;;;;;;;;;;5036213;28;20525;-83
2021/06/06 09:49:33;;;;;;;5.03;3.30;;;;;;;;;;5034987;28;20418;-82
2021/06/06 09:52:14;;;;;;;3.85;3.03;;;;;;;;;;5037393;28;20409;-84
2021/06/06 09:54:42;;;;;;;4.65;3.78;;;;;;;;;;5033688;28;20401;-83
2021/06/06 09:57:23;;;;;;;4.33;3.50;;;;;;;;;;5031492;28;20929;-83
2021/06/06 09:59:50;;;;;;;3.50;3.20;;;;;;;;;;5039914;28;20836;-83
2021/06/06 10:02:37;;;;;;;4.38;3.13;;;;;;;;;;5038735;28;20418;-83
2021/06/06 10:05:10;;;;;;;4.03;3.10;;;;;;;;;;5039782;28;20787;-84
2021/06/06 10:07:40;;;;;;;4.40;3.03;;;;;;;;;;5041706;28;20414;-84
2021/06/06 10:10:15;;;;;;;3.80;3.40;;;;;;;;;;5041005;28;20497;-83
2021/06/06 10:12:47;;;;;;;3.73;3.17;;;;;;;;;;5041509;28;20407;-82
2021/06/06 10:15:18;;;;;;;3.40;3.10;;;;;;;;;;5036878;28;20481;-84
2021/06/06 10:17:48;;;;;;;5.05;3.40;;;;;;;;;;5030111;28;20522;-83
2021/06/06 10:20:20;;;;;;;3.88;3.42;;;;;;;;;;5038209;28;21313;-82
2021/06/06 10:22:50;;;;;;;3.38;3.08;;;;;;;;;;5035658;28;20399;-83
2021/06/06 10:25:22;;;;;;;4.72;3.00;;;;;;;;;;5033586;28;20489;-84
2021/06/06 10:27:55;;;;;;;5.07;3.10;;;;;;;;;;5044153;28;20432;-83
2021/06/06 10:30:29;;;;;;;5.00;2.90;;;;;;;;;;5040290;28;20404;-83
2021/06/06 10:33:01;;;;;;;4.60;2.80;;;;;;;;;;5029607;28;20500;-83
2021/06/06 10:35:29;;;;;;;5.07;3.15;;;;;;;;;;5037324;28;20483;-85
2021/06/06 10:37:58;;;;;;;4.13;2.75;;;;;;;;;;5035705;28;20545;-82
2021/06/06 10:40:29;;;;;;;3.35;2.60;;;;;;;;;;5036910;28;20415;-82
2021/06/06 10:43:01;;;;;;;3.97;2.87;;;;;;;;;;5027353;28;20455;-84
2021/06/06 10:45:33;;;;;;;3.63;2.50;;;;;;;;;;5037816;28;20461;-85
2021/06/06 10:48:06;;;;;;;5.55;2.60;;;;;;;;;;5040679;28;21841;-84
2021/06/06 10:50:37;;;;;;;3.85;2.72;;;;;;;;;;5037368;28;20459;-82
2021/06/06 10:53:23;;;;;;;5.07;2.50;;;;;;;;;;5035300;28;20416;-84
2021/06/06 10:55:58;;;;;;;3.25;2.65;;;;;;;;;;5043730;28;20927;-82
2021/06/06 10:58:34;;;;;;;3.25;2.22;;;;;;;;;;5047860;28;20919;-83
2021/06/06 11:01:05;;;;;;;4.68;2.53;;;;;;;;;;5051542;28;20410;-82
2021/06/06 11:03:35;;;;;;;2.83;2.15;;;;;;;;;;5055063;28;20846;-82
2021/06/06 11:06:04;;;;;;;3.28;1.88;;;;;;;;;;5045354;28;20422;-84
2021/06/06 11:08:46;;;;;;;2.22;1.60;;;;;;;;;;5046827;28;20429;-83
2021/06/06 11:11:20;;;;;;;3.15;1.63;;;;;;;;;;5042702;28;20500;-83
2021/06/06 11:13:51;;;;;;;5.55;1.98;;;;;;;;;;5044326;28;20411;-84
2021/06/06 11:16:26;;;;;;;2.75;2.00;;;;;;;;;;5042362;28;20421;-83
2021/06/06 11:18:55;;;;;;;1.92;1.70;;;;;;;;;;5045419;28;21029;-84
2021/06/06 11:21:42;;;;;;;2.95;1.80;;;;;;;;;;5043983;28;20407;-84
2021/06/06 11:24:45;;;;;;;3.28;1.90;;;;;;;;;;5047841;28;20418;-83
2021/06/06 11:27:29;;;;;;;5.25;2.22;;;;;;;;;;5047388;28;20413;-83
2021/06/06 11:30:01;;;;;;;4.65;2.70;;;;;;;;;;5047541;28;20415;-84
2021/06/06 11:32:33;;;;;;;4.35;3.00;;;;;;;;;;5051205;28;20408;-83
2021/06/06 11:35:25;;;;;;;4.72;2.85;;;;;;;;;;5044101;28;20412;-84
2021/06/06 11:37:54;;;;;;;5.23;2.80;;;;;;;;;;5034398;28;20415;-84
2021/06/06 11:40:45;;;;;;;5.07;3.22;;;;;;;;;;5048159;28;20403;-87
2021/06/06 11:43:28;;;;;;;3.22;2.60;;;;;;;;;;5040640;28;20553;-85
2021/06/06 11:46:12;;;;;;;3.03;2.63;;;;;;;;;;5036093;28;20418;-84
2021/06/06 11:48:52;;;;;;;3.80;2.20;;;;;;;;;;5040139;28;20411;-84
2021/06/06 11:51:26;;;;;;;4.03;2.33;;;;;;;;;;5038378;28;20409;-83
2021/06/06 11:53:53;;;;;;;5.35;2.70;;;;;;;;;;5040568;28;20413;-83
2021/06/06 11:56:28;;;;;;;3.53;2.20;;;;;;;;;;5037441;28;20896;-83
2021/06/06 11:59:06;;;;;;;3.75;2.30;;;;;;;;;;5034452;28;20511;-83
2021/06/06 12:01:45;;;;;;;3.05;2.70;;;;;;;;;;5041095;28;20667;-83
2021/06/06 12:04:12;;;;;;;5.35;2.67;;;;;;;;;;5037043;28;21020;-82
2021/06/06 12:06:40;;;;;;;4.38;3.45;;;;;;;;;;5035318;28;20495;-83
2021/06/06 12:09:15;;;;;;;4.18;3.05;;;;;;;;;;5038963;28;20784;-83
2021/06/06 12:11:42;;;;;;;3.37;2.70;;;;;;;;;;5038520;28;20514;-84
2021/06/06 12:14:14;;;;;;;2.60;2.40;;;;;;;;;;5033381;28;20494;-82
2021/06/06 12:16:51;;;;;;;3.85;3.10;;;;;;;;;;5032457;28;20504;-82
2021/06/06 12:19:20;;;;;;;3.20;2.90;;;;;;;;;;5030344;28;20429;-83
2021/06/06 12:21:48;;;;;;;4.35;3.00;;;;;;;;;;5031052;28;20426;-82
2021/06/06 12:24:19;;;;;;;3.50;3.00;;;;;;;;;;5032238;28;20399;-83
2021/06/06 12:26:51;;;;;;;2.80;2.60;;;;;;;;;;5032688;28;20466;-82
2021/06/06 12:29:26;;;;;;;4.82;2.63;;;;;;;;;;5030093;28;20475;-83
2021/06/06 12:31:54;;;;;;;3.03;1.95;;;;;;;;;;5034854;28;20973;-84
2021/06/06 12:34:24;;;;;;;3.20;2.90;;;;;;;;;;5035294;28;20396;-83
2021/06/06 12:36:57;;;;;;;3.60;3.00;;;;;;;;;;5039815;28;20562;-84
2021/06/06 12:39:25;;;;;;;4.38;2.63;;;;;;;;;;5038854;28;20505;-83
2021/06/06 12:41:55;;;;;;;5.68;2.78;;;;;;;;;;5045599;28;20816;-83
2021/06/06 12:44:26;;;;;;;2.70;2.40;;;;;;;;;;5047814;28;20418;-84
2021/06/06 12:46:57;;;;;;;3.50;2.63;;;;;;;;;;5046483;28;20409;-83
2021/06/06 12:49:33;;;;;;;4.57;2.80;;;;;;;;;;5044230;28;20404;-83
2021/06/06 12:52:05;;;;;;;3.28;2.92;;;;;;;;;;5040986;28;20810;-81
2021/06/06 12:54:37;;;;;;;3.80;3.40;;;;;;;;;;5043171;28;20486;-83
2021/06/06 12:57:08;;;;;;;2.63;1.90;;;;;;;;;;5044077;28;20451;-81
2021/06/06 12:59:35;;;;;;;2.92;2.22;;;;;;;;;;5042831;28;20397;-82
2021/06/06 13:02:11;;;;;;;2.88;2.60;;;;;;;;;;5040289;28;20406;-82
2021/06/06 13:04:38;;;;;;;3.35;2.53;;;;;;;;;;5035713;28;20407;-82
2021/06/06 13:07:22;;;;;;;4.53;2.90;;;;;;;;;;5044347;28;20433;-82
2021/06/06 13:09:50;;;;;;;3.03;2.17;;;;;;;;;;5055874;28;20428;-81
2021/06/06 13:12:24;;;;;;;3.40;2.00;;;;;;;;;;5052120;28;20420;-83
2021/06/06 13:14:57;;;;;;;4.78;2.33;;;;;;;;;;5039886;28;20439;-83
2021/06/06 13:17:29;;;;;;;2.70;1.95;;;;;;;;;;5031321;28;20510;-83
2021/06/06 13:20:15;;;;;;;4.20;2.65;;;;;;;;;;5035759;28;20405;-82
2021/06/06 13:22:54;;;;;;;5.10;3.10;;;;;;;;;;5032935;28;20442;-82
2021/06/06 13:25:30;;;;;;;5.43;2.33;;;;;;;;;;5042834;28;20449;-83
2021/06/06 13:27:56;;;;;;;4.38;2.40;;;;;;;;;;5046605;28;20410;-85
2021/06/06 13:30:40;;;;;;;4.95;2.88;;;;;;;;;;5041701;28;20947;-84
2021/06/06 13:33:12;;;;;;;4.95;2.55;;;;;;;;;;5043677;28;20445;-85
2021/06/06 13:35:39;;;;;;;4.40;2.70;;;;;;;;;;5041902;28;20481;-83
2021/06/06 13:38:06;;;;;;;4.63;2.53;;;;;;;;;;5040163;28;20803;-84
2021/06/06 13:40:38;;;;;;;3.90;2.40;;;;;;;;;;5049036;28;21026;-84
2021/06/06 13:43:05;;;;;;;3.75;2.50;;;;;;;;;;5049999;28;20413;-84
2021/06/06 13:45:32;;;;;;;3.00;2.10;;;;;;;;;;5049796;28;20804;-84
2021/06/06 13:48:01;;;;;;;4.82;2.33;;;;;;;;;;5045414;28;20434;-84
2021/06/06 13:50:32;;;;;;;4.43;1.90;;;;;;;;;;5050103;28;21123;-84
2021/06/06 13:52:59;;;;;;;2.55;1.80;;;;;;;;;;5048741;28;20407;-85
2021/06/06 13:55:30;;;;;;;2.70;1.80;;;;;;;;;;5048310;28;20423;-84
2021/06/06 13:57:57;;;;;;;3.88;2.15;;;;;;;;;;5049877;28;20474;-84
2021/06/06 14:00:24;;;;;;;2.45;1.98;;;;;;;;;;5047835;28;20405;-84
2021/06/06 14:02:54;;;;;;;2.47;1.90;;;;;;;;;;5042480;28;20984;-86
2021/06/06 14:05:21;;;;;;;2.60;1.60;;;;;;;;;;5041297;28;20461;-84
2021/06/06 14:07:50;;;;;;;2.28;1.60;;;;;;;;;;5041442;28;20553;-85
2021/06/06 14:10:23;;;;;;;3.10;1.80;;;;;;;;;;5022105;28;20443;-83
2021/06/06 14:12:50;;;;;;;3.30;1.55;;;;;;;;;;5041474;28;20404;-86
2021/06/06 14:15:20;;;;;;;2.40;1.58;;;;;;;;;;5038467;28;20899;-84
2021/06/06 14:17:47;;;;;;;3.00;1.63;;;;;;;;;;5038544;28;20784;-83
2021/06/06 14:20:15;;;;;;;2.80;1.60;;;;;;;;;;5039005;28;20890;-84
2021/06/06 14:22:42;;;;;;;1.85;1.63;;;;;;;;;;5038688;28;20417;-84
2021/06/06 14:25:14;;;;;;;2.92;1.85;;;;;;;;;;5039291;28;20463;-85
2021/06/06 14:27:42;;;;;;;3.30;1.90;;;;;;;;;;5037662;28;20553;-84
2021/06/06 14:30:09;;;;;;;4.68;2.28;;;;;;;;;;5038547;28;20820;-86
2021/06/06 14:32:36;;;;;;;3.30;2.22;;;;;;;;;;5039262;28;20490;-84
2021/06/06 14:35:04;;;;;;;6.43;2.22;;;;;;;;;;5040435;28;20501;-84
2021/06/06 14:37:31;;;;;;;3.10;2.30;;;;;;;;;;5038316;28;20400;-84
2021/06/06 14:39:57;;;;;;;2.90;2.50;;;;;;;;;;5031315;28;20494;-85
2021/06/06 14:42:26;;;;;;;5.18;2.83;;;;;;;;;;5038418;28;20757;-85
2021/06/06 14:44:53;;;;;;;4.25;2.60;;;;;;;;;;5039767;28;20407;-84
2021/06/06 14:47:20;;;;;;;3.33;2.45;;;;;;;;;;5036163;28;20601;-85
2021/06/06 14:49:47;;;;;;;3.50;2.58;;;;;;;;;;5038089;28;20430;-84
2021/06/06 14:52:14;;;;;;;3.63;2.60;;;;;;;;;;5042358;28;20663;-85
2021/06/06 14:54:42;;;;;;;3.00;2.60;;;;;;;;;;5033753;28;20405;-84
2021/06/06 14:57:09;;;;;;;4.63;2.60;;;;;;;;;;5030648;28;20414;-83
2021/06/06 14:59:37;;;;;;;4.75;2.40;;;;;;;;;;5034857;28;20433;-84